createdAt,value
2023-07-30T00:13:32.866Z,15.7
2023-07-30T02:04:04.023Z,14.5
2023-07-30T02:14:12.776Z,14.3
2023-07-30T02:24:07.737Z,14.1
2023-07-30T02:34:09.403Z,13.7
2023-07-30T02:44:11.231Z,13.6
2023-07-30T03:04:15.273Z,13.4
2023-07-30T03:24:19.497Z,13.2
2023-07-30T03:54:26.761Z,13.3
2023-07-30T04:04:29.088Z,13.3
2023-07-30T04:14:30.976Z,13.4
2023-07-30T04:24:32.691Z,13.5
2023-07-30T04:34:35.071Z,13.6
2023-07-30T04:44:37.583Z,13.8
2023-07-30T04:54:39.290Z,14
2023-07-30T05:04:41.593Z,14.2
2023-07-30T05:14:43.727Z,14.3
2023-07-30T05:34:48.044Z,14.5
2023-07-30T05:44:50.438Z,14.5
2023-07-30T05:54:52.481Z,14.5
2023-07-30T06:04:54.596Z,14.6
2023-07-30T06:14:56.807Z,14.6
2023-07-30T06:35:01.025Z,14.7
2023-07-30T06:55:05.650Z,14.9
2023-07-30T07:15:10.019Z,15.2
2023-07-30T07:25:12.195Z,15.2
2023-07-30T07:35:14.322Z,15.1
2023-07-30T07:45:16.645Z,15.2
2023-07-30T07:55:26.137Z,15.1
2023-07-30T08:05:20.970Z,15.1
2023-07-30T08:15:23.386Z,15.4
2023-07-30T08:25:32.901Z,15.6
2023-07-30T08:35:28.427Z,15.7
2023-07-30T08:55:32.093Z,16.6
2023-07-30T09:05:33.988Z,16.6
2023-07-30T09:15:35.857Z,16.6
2023-07-30T10:05:46.148Z,18.3
2023-07-30T11:16:00.306Z,18.1
2023-07-30T11:36:04.776Z,19.3
2023-07-30T11:46:06.693Z,19
2023-07-30T12:06:11.214Z,19.1
2023-07-30T12:36:17.277Z,16.8
2023-07-30T13:46:31.398Z,17.2
2023-07-30T14:06:35.657Z,18.6
2023-07-30T14:46:44.893Z,19.8
2023-07-30T15:06:55.863Z,19.5
2023-07-30T15:26:59.857Z,19.5
2023-07-30T15:37:01.616Z,19.5
2023-07-30T15:47:18.392Z,19.8
2023-07-30T15:56:58.219Z,19.6
2023-07-30T16:07:00.858Z,19.8
2023-07-30T16:17:10.283Z,19.6
2023-07-30T16:27:05.625Z,19.7
2023-07-30T16:47:10.203Z,19.7
2023-07-30T17:07:13.631Z,19.8
2023-07-30T17:17:16.199Z,19.8
2023-07-30T17:27:17.910Z,19.7
2023-07-30T17:47:22.238Z,19.9
2023-07-30T17:57:46.232Z,19.9
2023-07-30T18:27:38.294Z,20
2023-07-30T18:47:35.349Z,18.5
2023-07-30T18:57:37.467Z,17.5
2023-07-30T19:07:39.440Z,16.5
2023-07-30T19:37:44.943Z,15.3
2023-07-30T19:47:47.192Z,15.3
2023-07-30T19:57:49.517Z,15.3
2023-07-30T20:07:51.513Z,15.3
2023-07-30T20:17:53.766Z,15.5
2023-07-30T20:28:17.603Z,15.3
2023-07-30T20:38:19.373Z,15.3
2023-07-30T20:47:59.535Z,15.3
2023-07-30T20:58:02.014Z,15.3
2023-07-30T21:18:06.510Z,15.1
2023-07-30T21:28:08.594Z,14.9
2023-07-30T21:38:10.579Z,14.8
2023-07-30T21:48:19.435Z,14.8
2023-07-30T21:58:14.670Z,14.9
2023-07-30T22:08:17.073Z,14.9
2023-07-30T22:18:19.138Z,14.9
2023-07-30T22:28:21.356Z,14.9
2023-07-30T22:38:23.201Z,15
2023-07-30T22:48:25.005Z,15
2023-07-30T22:58:26.902Z,15
2023-07-30T23:08:35.729Z,15.1
2023-07-30T23:18:30.645Z,15.1
2023-07-30T23:28:32.425Z,14.9
2023-07-30T23:38:34.565Z,14.5
2023-07-30T23:48:36.995Z,14.5
2023-07-30T23:58:38.882Z,14.2
